sensor_id;sensor_type;location;lat;lon;timestamp;pressure;altitude;pressure_sealevel;temperature;humidity
30873;BME280;17579;42.690;2.586;2023-07-13T00:00:22;97296.94;;;25.05;43.35
30873;BME280;17579;42.690;2.586;2023-07-13T00:03:20;97283.63;;;25.03;43.40
30873;BME280;17579;42.690;2.586;2023-07-13T00:06:05;97286.81;;;25.00;43.58
30873;BME280;17579;42.690;2.586;2023-07-13T00:08:34;97282.22;;;25.01;43.67
30873;BME280;17579;42.690;2.586;2023-07-13T00:11:06;97285.41;;;24.98;43.70
30873;BME280;17579;42.690;2.586;2023-07-13T00:13:35;97298.59;;;24.94;44.10
30873;BME280;17579;42.690;2.586;2023-07-13T00:16:19;97298.22;;;24.90;44.18
30873;BME280;17579;42.690;2.586;2023-07-13T00:19:08;97292.25;;;24.88;43.73
30873;BME280;17579;42.690;2.586;2023-07-13T00:21:36;97283.66;;;24.92;44.10
30873;BME280;17579;42.690;2.586;2023-07-13T00:24:11;97280.00;;;24.86;44.21
30873;BME280;17579;42.690;2.586;2023-07-13T00:26:40;97281.88;;;24.85;44.49
30873;BME280;17579;42.690;2.586;2023-07-13T00:29:06;97268.59;;;24.84;44.75
30873;BME280;17579;42.690;2.586;2023-07-13T00:31:40;97276.59;;;24.79;45.03
30873;BME280;17579;42.690;2.586;2023-07-13T00:34:09;97280.13;;;24.79;44.82
30873;BME280;17579;42.690;2.586;2023-07-13T00:36:35;97277.91;;;24.76;45.15
30873;BME280;17579;42.690;2.586;2023-07-13T00:39:21;97267.06;;;24.76;45.33
30873;BME280;17579;42.690;2.586;2023-07-13T00:41:50;97268.13;;;24.75;45.72
30873;BME280;17579;42.690;2.586;2023-07-13T00:44:17;97269.66;;;24.71;45.68
30873;BME280;17579;42.690;2.586;2023-07-13T00:46:49;97258.72;;;24.66;45.87
30873;BME280;17579;42.690;2.586;2023-07-13T00:50:04;97263.09;;;24.67;45.83
30873;BME280;17579;42.690;2.586;2023-07-13T00:52:11;97265.19;;;24.65;45.92
30873;BME280;17579;42.690;2.586;2023-07-13T00:54:41;97257.16;;;24.58;46.01
30873;BME280;17579;42.690;2.586;2023-07-13T00:57:17;97267.78;;;24.60;45.87
30873;BME280;17579;42.690;2.586;2023-07-13T00:59:49;97258.22;;;24.57;45.94
30873;BME280;17579;42.690;2.586;2023-07-13T01:02:20;97264.22;;;24.59;45.89
30873;BME280;17579;42.690;2.586;2023-07-13T01:04:50;97265.75;;;24.55;46.17
30873;BME280;17579;42.690;2.586;2023-07-13T01:07:36;97269.38;;;24.49;46.26
30873;BME280;17579;42.690;2.586;2023-07-13T01:12:56;97259.38;;;24.49;45.97
30873;BME280;17579;42.690;2.586;2023-07-13T01:17:55;97250.13;;;24.45;46.93
30873;BME280;17579;42.690;2.586;2023-07-13T01:20:23;97258.09;;;24.40;46.96
30873;BME280;17579;42.690;2.586;2023-07-13T01:22:51;97258.69;;;24.42;46.71
30873;BME280;17579;42.690;2.586;2023-07-13T01:25:17;97257.63;;;24.43;46.63
30873;BME280;17579;42.690;2.586;2023-07-13T01:27:43;97254.59;;;24.39;46.81
30873;BME280;17579;42.690;2.586;2023-07-13T01:30:12;97256.44;;;24.39;47.02
30873;BME280;17579;42.690;2.586;2023-07-13T01:32:41;97263.50;;;24.40;46.75
30873;BME280;17579;42.690;2.586;2023-07-13T01:35:20;97261.84;;;24.39;47.27
30873;BME280;17579;42.690;2.586;2023-07-13T01:38:04;97261.63;;;24.41;47.21
30873;BME280;17579;42.690;2.586;2023-07-13T01:43:18;97255.41;;;24.40;47.82
30873;BME280;17579;42.690;2.586;2023-07-13T01:46:04;97254.22;;;24.36;48.02
30873;BME280;17579;42.690;2.586;2023-07-13T01:48:32;97263.84;;;24.32;48.29
30873;BME280;17579;42.690;2.586;2023-07-13T01:51:01;97267.84;;;24.29;48.54
30873;BME280;17579;42.690;2.586;2023-07-13T01:53:29;97261.63;;;24.29;48.39
30873;BME280;17579;42.690;2.586;2023-07-13T01:56:10;97258.34;;;24.27;48.13
30873;BME280;17579;42.690;2.586;2023-07-13T01:58:38;97261.47;;;24.24;48.58
30873;BME280;17579;42.690;2.586;2023-07-13T02:01:07;97263.03;;;24.19;48.36
30873;BME280;17579;42.690;2.586;2023-07-13T02:03:35;97267.34;;;24.20;48.84
30873;BME280;17579;42.690;2.586;2023-07-13T02:06:23;97262.75;;;24.09;48.28
30873;BME280;17579;42.690;2.586;2023-07-13T02:08:49;97258.75;;;24.12;49.10
30873;BME280;17579;42.690;2.586;2023-07-13T02:11:19;97272.50;;;24.10;49.08
30873;BME280;17579;42.690;2.586;2023-07-13T02:14:03;97267.72;;;24.12;49.48
30873;BME280;17579;42.690;2.586;2023-07-13T02:16:41;97256.91;;;24.12;48.99
30873;BME280;17579;42.690;2.586;2023-07-13T02:19:10;97253.59;;;24.10;49.66
30873;BME280;17579;42.690;2.586;2023-07-13T02:21:38;97260.50;;;24.06;49.87
30873;BME280;17579;42.690;2.586;2023-07-13T02:24:06;97261.59;;;24.05;49.50
30873;BME280;17579;42.690;2.586;2023-07-13T02:26:45;97267.41;;;24.02;49.90
30873;BME280;17579;42.690;2.586;2023-07-13T02:29:17;97271.19;;;24.01;50.02
30873;BME280;17579;42.690;2.586;2023-07-13T02:31:46;97263.09;;;24.01;50.28
30873;BME280;17579;42.690;2.586;2023-07-13T02:34:14;97258.38;;;23.96;50.24
30873;BME280;17579;42.690;2.586;2023-07-13T02:36:51;97265.06;;;23.94;50.20
30873;BME280;17579;42.690;2.586;2023-07-13T02:39:19;97277.50;;;23.95;50.48
30873;BME280;17579;42.690;2.586;2023-07-13T02:41:54;97272.56;;;23.92;50.16
30873;BME280;17579;42.690;2.586;2023-07-13T02:44:22;97271.66;;;23.98;50.61
30873;BME280;17579;42.690;2.586;2023-07-13T02:46:48;97269.41;;;23.95;50.55
30873;BME280;17579;42.690;2.586;2023-07-13T02:49:13;97275.28;;;23.92;50.63
30873;BME280;17579;42.690;2.586;2023-07-13T02:51:42;97274.22;;;23.93;51.18
30873;BME280;17579;42.690;2.586;2023-07-13T02:54:10;97274.69;;;23.90;51.30
30873;BME280;17579;42.690;2.586;2023-07-13T02:56:41;97270.09;;;23.90;50.87
30873;BME280;17579;42.690;2.586;2023-07-13T02:59:09;97272.81;;;23.90;51.27
30873;BME280;17579;42.690;2.586;2023-07-13T03:01:40;97268.25;;;23.91;51.35
30873;BME280;17579;42.690;2.586;2023-07-13T03:04:11;97285.72;;;23.88;51.20
30873;BME280;17579;42.690;2.586;2023-07-13T03:06:40;97267.63;;;23.89;51.42
30873;BME280;17579;42.690;2.586;2023-07-13T03:09:06;97282.63;;;23.84;51.53
30873;BME280;17579;42.690;2.586;2023-07-13T03:11:34;97287.78;;;23.86;51.29
30873;BME280;17579;42.690;2.586;2023-07-13T03:14:00;97285.09;;;23.86;51.79
30873;BME280;17579;42.690;2.586;2023-07-13T03:16:28;97287.16;;;23.91;51.29
30873;BME280;17579;42.690;2.586;2023-07-13T03:19:15;97299.13;;;23.95;51.28
30873;BME280;17579;42.690;2.586;2023-07-13T03:21:40;97295.03;;;23.92;51.25
30873;BME280;17579;42.690;2.586;2023-07-13T03:24:06;97297.34;;;23.89;51.07
30873;BME280;17579;42.690;2.586;2023-07-13T03:26:41;97302.75;;;23.89;51.40
30873;BME280;17579;42.690;2.586;2023-07-13T03:29:07;97296.66;;;23.93;51.14
30873;BME280;17579;42.690;2.586;2023-07-13T03:32:00;97306.34;;;23.82;50.99
30873;BME280;17579;42.690;2.586;2023-07-13T03:34:36;97308.97;;;23.89;51.09
30873;BME280;17579;42.690;2.586;2023-07-13T03:37:06;97310.03;;;23.88;51.40
30873;BME280;17579;42.690;2.586;2023-07-13T03:39:34;97307.78;;;23.85;51.13
30873;BME280;17579;42.690;2.586;2023-07-13T03:41:59;97303.41;;;23.84;51.83
30873;BME280;17579;42.690;2.586;2023-07-13T03:44:30;97293.88;;;23.81;51.69
30873;BME280;17579;42.690;2.586;2023-07-13T03:47:18;97312.88;;;23.75;51.61
30873;BME280;17579;42.690;2.586;2023-07-13T03:49:46;97306.56;;;23.81;51.80
30873;BME280;17579;42.690;2.586;2023-07-13T03:52:19;97305.38;;;23.77;52.10
30873;BME280;17579;42.690;2.586;2023-07-13T03:54:45;97308.44;;;23.80;51.77
30873;BME280;17579;42.690;2.586;2023-07-13T03:57:15;97315.13;;;23.78;51.89
30873;BME280;17579;42.690;2.586;2023-07-13T03:59:57;97305.97;;;23.79;51.83
30873;BME280;17579;42.690;2.586;2023-07-13T04:02:46;97299.38;;;23.75;51.98
30873;BME280;17579;42.690;2.586;2023-07-13T04:05:15;97303.59;;;23.70;52.46
30873;BME280;17579;42.690;2.586;2023-07-13T04:07:40;97307.56;;;23.68;52.17
30873;BME280;17579;42.690;2.586;2023-07-13T04:10:07;97312.34;;;23.66;52.46
30873;BME280;17579;42.690;2.586;2023-07-13T04:12:35;97315.06;;;23.66;52.28
30873;BME280;17579;42.690;2.586;2023-07-13T04:15:00;97316.13;;;23.65;52.38
30873;BME280;17579;42.690;2.586;2023-07-13T04:17:28;97319.41;;;23.67;52.63
30873;BME280;17579;42.690;2.586;2023-07-13T04:20:05;97321.31;;;23.66;52.37
30873;BME280;17579;42.690;2.586;2023-07-13T04:22:41;97314.59;;;23.69;52.46
30873;BME280;17579;42.690;2.586;2023-07-13T04:25:21;97328.72;;;23.71;52.21
30873;BME280;17579;42.690;2.586;2023-07-13T04:27:49;97332.91;;;23.67;52.33
30873;BME280;17579;42.690;2.586;2023-07-13T04:30:15;97326.31;;;23.63;52.70
30873;BME280;17579;42.690;2.586;2023-07-13T04:32:41;97322.19;;;23.60;52.69
30873;BME280;17579;42.690;2.586;2023-07-13T04:35:09;97336.16;;;23.57;52.97
30873;BME280;17579;42.690;2.586;2023-07-13T04:37:47;97340.06;;;23.61;52.97
30873;BME280;17579;42.690;2.586;2023-07-13T04:40:17;97337.34;;;23.61;52.74
30873;BME280;17579;42.690;2.586;2023-07-13T04:42:51;97342.53;;;23.63;52.87
30873;BME280;17579;42.690;2.586;2023-07-13T04:45:19;97342.53;;;23.63;52.69
30873;BME280;17579;42.690;2.586;2023-07-13T04:48:31;97339.47;;;23.59;53.30
30873;BME280;17579;42.690;2.586;2023-07-13T04:50:39;97348.38;;;23.60;53.20
30873;BME280;17579;42.690;2.586;2023-07-13T04:53:30;97344.13;;;23.52;52.86
30873;BME280;17579;42.690;2.586;2023-07-13T04:56:25;97338.09;;;23.50;53.02
30873;BME280;17579;42.690;2.586;2023-07-13T04:58:51;97340.72;;;23.57;53.80
30873;BME280;17579;42.690;2.586;2023-07-13T05:04:25;97352.03;;;23.65;53.44
30873;BME280;17579;42.690;2.586;2023-07-13T05:07:01;97346.41;;;23.67;53.80
30873;BME280;17579;42.690;2.586;2023-07-13T05:09:30;97358.41;;;23.71;53.68
30873;BME280;17579;42.690;2.586;2023-07-13T05:12:07;97360.66;;;23.74;53.42
30873;BME280;17579;42.690;2.586;2023-07-13T05:14:33;97371.84;;;23.78;53.53
30873;BME280;17579;42.690;2.586;2023-07-13T05:16:59;97369.03;;;23.84;53.83
30873;BME280;17579;42.690;2.586;2023-07-13T05:19:31;97374.03;;;23.87;53.67
30873;BME280;17579;42.690;2.586;2023-07-13T05:21:59;97375.13;;;23.98;53.42
30873;BME280;17579;42.690;2.586;2023-07-13T05:24:34;97376.47;;;24.08;53.49
30873;BME280;17579;42.690;2.586;2023-07-13T05:27:05;97376.09;;;24.04;53.61
30873;BME280;17579;42.690;2.586;2023-07-13T05:29:31;97381.03;;;24.07;53.72
30873;BME280;17579;42.690;2.586;2023-07-13T05:31:56;97373.31;;;24.11;53.39
30873;BME280;17579;42.690;2.586;2023-07-13T05:34:25;97368.66;;;24.18;53.10
30873;BME280;17579;42.690;2.586;2023-07-13T05:36:52;97373.47;;;24.28;53.51
30873;BME280;17579;42.690;2.586;2023-07-13T05:39:18;97372.09;;;24.37;53.10
30873;BME280;17579;42.690;2.586;2023-07-13T05:42:29;97376.13;;;24.46;52.59
30873;BME280;17579;42.690;2.586;2023-07-13T05:44:39;97365.97;;;24.60;52.27
30873;BME280;17579;42.690;2.586;2023-07-13T05:47:07;97374.47;;;24.76;52.08
30873;BME280;17579;42.690;2.586;2023-07-13T05:49:45;97379.63;;;24.77;52.04
30873;BME280;17579;42.690;2.586;2023-07-13T05:55:11;97382.13;;;25.14;51.49
30873;BME280;17579;42.690;2.586;2023-07-13T05:57:39;97380.22;;;25.27;51.11
30873;BME280;17579;42.690;2.586;2023-07-13T06:00:13;97384.84;;;25.38;51.18
30873;BME280;17579;42.690;2.586;2023-07-13T06:02:42;97394.97;;;25.54;51.08
30873;BME280;17579;42.690;2.586;2023-07-13T06:05:10;97392.78;;;25.68;50.45
30873;BME280;17579;42.690;2.586;2023-07-13T06:07:39;97399.09;;;25.86;50.39
30873;BME280;17579;42.690;2.586;2023-07-13T06:10:13;97384.94;;;25.96;49.61
30873;BME280;17579;42.690;2.586;2023-07-13T06:12:44;97396.94;;;26.00;49.77
30873;BME280;17579;42.690;2.586;2023-07-13T06:15:10;97387.63;;;26.07;49.94
30873;BME280;17579;42.690;2.586;2023-07-13T06:17:45;97388.16;;;26.21;49.25
30873;BME280;17579;42.690;2.586;2023-07-13T06:20:36;97390.38;;;26.24;49.68
30873;BME280;17579;42.690;2.586;2023-07-13T06:23:21;97401.88;;;26.43;48.46
30873;BME280;17579;42.690;2.586;2023-07-13T06:25:49;97394.47;;;26.56;48.47
30873;BME280;17579;42.690;2.586;2023-07-13T06:29:31;97402.63;;;26.56;48.12
30873;BME280;17579;42.690;2.586;2023-07-13T06:31:07;97398.00;;;26.68;47.69
30873;BME280;17579;42.690;2.586;2023-07-13T06:33:33;97405.25;;;26.79;47.53
30873;BME280;17579;42.690;2.586;2023-07-13T06:36:00;97409.03;;;26.95;47.51
30873;BME280;17579;42.690;2.586;2023-07-13T06:38:47;97404.97;;;27.15;46.87
30873;BME280;17579;42.690;2.586;2023-07-13T06:41:18;97410.22;;;27.22;46.52
30873;BME280;17579;42.690;2.586;2023-07-13T06:43:45;97409.31;;;27.33;46.44
30873;BME280;17579;42.690;2.586;2023-07-13T06:46:14;97410.00;;;27.40;46.50
30873;BME280;17579;42.690;2.586;2023-07-13T06:48:40;97412.91;;;27.56;46.07
30873;BME280;17579;42.690;2.586;2023-07-13T06:51:08;97418.38;;;27.78;45.30
30873;BME280;17579;42.690;2.586;2023-07-13T06:53:39;97418.22;;;27.90;45.44
30873;BME280;17579;42.690;2.586;2023-07-13T06:56:13;97423.25;;;27.98;44.76
30873;BME280;17579;42.690;2.586;2023-07-13T06:58:39;97421.81;;;28.12;44.06
30873;BME280;17579;42.690;2.586;2023-07-13T07:01:05;97421.53;;;28.14;43.99
30873;BME280;17579;42.690;2.586;2023-07-13T07:03:33;97427.34;;;28.23;43.94
30873;BME280;17579;42.690;2.586;2023-07-13T07:08:37;97431.94;;;28.44;43.38
30873;BME280;17579;42.690;2.586;2023-07-13T07:11:05;97438.84;;;28.57;43.48
30873;BME280;17579;42.690;2.586;2023-07-13T07:13:34;97426.31;;;28.78;43.15
30873;BME280;17579;42.690;2.586;2023-07-13T07:16:03;97429.13;;;28.89;43.18
30873;BME280;17579;42.690;2.586;2023-07-13T07:18:35;97432.78;;;29.04;42.55
30873;BME280;17579;42.690;2.586;2023-07-13T07:23:59;97429.78;;;29.38;41.88
30873;BME280;17579;42.690;2.586;2023-07-13T07:26:28;97437.16;;;29.38;42.09
30873;BME280;17579;42.690;2.586;2023-07-13T07:28:56;97424.00;;;29.30;41.10
30873;BME280;17579;42.690;2.586;2023-07-13T07:31:31;97428.88;;;29.23;41.34
30873;BME280;17579;42.690;2.586;2023-07-13T07:34:00;97421.75;;;29.21;41.67
30873;BME280;17579;42.690;2.586;2023-07-13T07:36:26;97422.00;;;29.20;41.69
30873;BME280;17579;42.690;2.586;2023-07-13T07:38:56;97432.34;;;29.18;41.99
30873;BME280;17579;42.690;2.586;2023-07-13T07:41:25;97430.31;;;29.35;41.71
30873;BME280;17579;42.690;2.586;2023-07-13T07:44:13;97434.34;;;29.28;41.98
30873;BME280;17579;42.690;2.586;2023-07-13T07:46:41;97435.84;;;29.51;41.28
30873;BME280;17579;42.690;2.586;2023-07-13T07:49:07;97439.25;;;29.68;40.48
30873;BME280;17579;42.690;2.586;2023-07-13T07:51:53;97446.84;;;29.66;40.55
30873;BME280;17579;42.690;2.586;2023-07-13T07:54:21;97441.44;;;29.77;40.25
30873;BME280;17579;42.690;2.586;2023-07-13T07:56:50;97436.09;;;29.87;39.95
30873;BME280;17579;42.690;2.586;2023-07-13T07:59:23;97442.69;;;30.06;39.80
30873;BME280;17579;42.690;2.586;2023-07-13T08:02:00;97434.88;;;30.31;39.50
30873;BME280;17579;42.690;2.586;2023-07-13T08:04:31;97432.22;;;30.51;38.65
30873;BME280;17579;42.690;2.586;2023-07-13T08:07:01;97433.31;;;30.45;38.59
30873;BME280;17579;42.690;2.586;2023-07-13T08:09:30;97434.69;;;30.58;38.53
30873;BME280;17579;42.690;2.586;2023-07-13T08:12:10;97443.75;;;30.79;37.64
30873;BME280;17579;42.690;2.586;2023-07-13T08:14:35;97434.44;;;30.75;37.90
30873;BME280;17579;42.690;2.586;2023-07-13T08:17:04;97433.38;;;30.76;37.56
30873;BME280;17579;42.690;2.586;2023-07-13T08:19:36;97437.72;;;30.87;37.66
30873;BME280;17579;42.690;2.586;2023-07-13T08:22:04;97441.56;;;30.86;37.12
30873;BME280;17579;42.690;2.586;2023-07-13T08:24:30;97437.44;;;30.84;37.01
30873;BME280;17579;42.690;2.586;2023-07-13T08:26:56;97439.09;;;30.90;37.36
30873;BME280;17579;42.690;2.586;2023-07-13T08:29:24;97434.44;;;30.96;37.11
30873;BME280;17579;42.690;2.586;2023-07-13T08:31:50;97432.00;;;30.99;36.75
30873;BME280;17579;42.690;2.586;2023-07-13T08:34:16;97450.00;;;30.90;36.99
30873;BME280;17579;42.690;2.586;2023-07-13T08:36:41;97441.00;;;30.79;36.83
30873;BME280;17579;42.690;2.586;2023-07-13T08:39:10;97430.34;;;30.78;36.57
30873;BME280;17579;42.690;2.586;2023-07-13T08:41:42;97448.94;;;30.81;36.50
30873;BME280;17579;42.690;2.586;2023-07-13T08:44:21;97437.16;;;30.60;36.86
30873;BME280;17579;42.690;2.586;2023-07-13T08:46:56;97425.69;;;30.57;36.51
30873;BME280;17579;42.690;2.586;2023-07-13T08:49:27;97423.22;;;30.71;36.37
30873;BME280;17579;42.690;2.586;2023-07-13T08:51:59;97425.44;;;30.69;36.88
30873;BME280;17579;42.690;2.586;2023-07-13T08:54:37;97417.50;;;30.88;35.78
30873;BME280;17579;42.690;2.586;2023-07-13T08:57:31;97420.53;;;30.82;36.56
30873;BME280;17579;42.690;2.586;2023-07-13T09:00:10;97427.38;;;31.10;35.39
30873;BME280;17579;42.690;2.586;2023-07-13T09:05:17;97434.22;;;31.13;35.17
30873;BME280;17579;42.690;2.586;2023-07-13T09:10:21;97433.59;;;30.74;35.49
30873;BME280;17579;42.690;2.586;2023-07-13T09:15:27;97417.22;;;30.49;36.31
30873;BME280;17579;42.690;2.586;2023-07-13T09:23:20;97427.00;;;30.34;35.79
30873;BME280;17579;42.690;2.586;2023-07-13T09:26:21;97432.66;;;30.17;35.98
30873;BME280;17579;42.690;2.586;2023-07-13T09:28:52;97421.72;;;30.12;36.04
30873;BME280;17579;42.690;2.586;2023-07-13T09:31:26;97424.91;;;29.94;36.37
30873;BME280;17579;42.690;2.586;2023-07-13T09:33:55;97430.78;;;29.70;36.36
30873;BME280;17579;42.690;2.586;2023-07-13T09:36:24;97436.41;;;29.53;37.15
30873;BME280;17579;42.690;2.586;2023-07-13T09:39:02;97427.91;;;29.44;37.21
30873;BME280;17579;42.690;2.586;2023-07-13T09:41:40;97433.91;;;29.46;37.50
30873;BME280;17579;42.690;2.586;2023-07-13T09:44:44;97423.06;;;29.51;37.14
30873;BME280;17579;42.690;2.586;2023-07-13T09:47:31;97423.84;;;29.47;37.44
30873;BME280;17579;42.690;2.586;2023-07-13T09:50:00;97425.47;;;29.43;37.09
30873;BME280;17579;42.690;2.586;2023-07-13T09:52:40;97427.03;;;29.33;37.63
30873;BME280;17579;42.690;2.586;2023-07-13T09:57:54;97425.78;;;29.51;37.21
30873;BME280;17579;42.690;2.586;2023-07-13T10:00:28;97432.25;;;29.40;37.42
30873;BME280;17579;42.690;2.586;2023-07-13T10:05:26;97434.22;;;29.50;37.18
30873;BME280;17579;42.690;2.586;2023-07-13T10:07:52;97437.28;;;29.64;36.76
30873;BME280;17579;42.690;2.586;2023-07-13T10:10:28;97435.63;;;29.58;36.87
30873;BME280;17579;42.690;2.586;2023-07-13T10:12:56;97440.47;;;29.50;37.06
30873;BME280;17579;42.690;2.586;2023-07-13T10:15:34;97439.41;;;29.57;37.05
30873;BME280;17579;42.690;2.586;2023-07-13T10:18:00;97437.63;;;29.72;36.70
30873;BME280;17579;42.690;2.586;2023-07-13T10:20:34;97447.28;;;29.91;37.15
30873;BME280;17579;42.690;2.586;2023-07-13T10:23:13;97441.81;;;29.91;36.62
30873;BME280;17579;42.690;2.586;2023-07-13T10:25:43;97449.97;;;29.85;36.32
30873;BME280;17579;42.690;2.586;2023-07-13T10:28:28;97456.63;;;29.57;36.64
30873;BME280;17579;42.690;2.586;2023-07-13T10:30:55;97453.09;;;29.62;36.80
30873;BME280;17579;42.690;2.586;2023-07-13T10:33:23;97441.66;;;29.65;36.58
30873;BME280;17579;42.690;2.586;2023-07-13T10:35:57;97445.44;;;29.59;36.40
30873;BME280;17579;42.690;2.586;2023-07-13T10:41:31;97446.25;;;29.59;36.87
30873;BME280;17579;42.690;2.586;2023-07-13T10:44:04;97454.91;;;29.51;36.56
30873;BME280;17579;42.690;2.586;2023-07-13T10:46:35;97459.22;;;29.42;36.71
30873;BME280;17579;42.690;2.586;2023-07-13T10:49:05;97444.75;;;29.36;36.84
30873;BME280;17579;42.690;2.586;2023-07-13T10:51:35;97460.63;;;29.49;36.70
30873;BME280;17579;42.690;2.586;2023-07-13T10:56:35;97458.31;;;29.68;36.46
30873;BME280;17579;42.690;2.586;2023-07-13T11:02:10;97459.94;;;29.64;36.42
30873;BME280;17579;42.690;2.586;2023-07-13T11:04:42;97456.72;;;29.72;36.01
30873;BME280;17579;42.690;2.586;2023-07-13T11:07:21;97457.16;;;29.59;35.76
30873;BME280;17579;42.690;2.586;2023-07-13T11:09:49;97462.06;;;29.57;36.39
30873;BME280;17579;42.690;2.586;2023-07-13T11:20:51;97460.72;;;30.08;36.15
30873;BME280;17579;42.690;2.586;2023-07-13T11:23:28;97449.84;;;30.18;35.61
30873;BME280;17579;42.690;2.586;2023-07-13T11:25:56;97450.41;;;30.25;35.28
30873;BME280;17579;42.690;2.586;2023-07-13T11:28:25;97449.31;;;30.31;35.41
30873;BME280;17579;42.690;2.586;2023-07-13T11:36:16;97439.78;;;30.29;34.75
30873;BME280;17579;42.690;2.586;2023-07-13T11:38:45;97428.34;;;30.32;34.39
30873;BME280;17579;42.690;2.586;2023-07-13T11:44:30;97435.69;;;30.31;34.63
30873;BME280;17579;42.690;2.586;2023-07-13T11:49:31;97442.28;;;30.40;34.77
30873;BME280;17579;42.690;2.586;2023-07-13T11:52:21;97433.31;;;30.55;34.31
30873;BME280;17579;42.690;2.586;2023-07-13T11:54:49;97427.34;;;30.64;33.98
30873;BME280;17579;42.690;2.586;2023-07-13T11:59:51;97432.00;;;30.84;33.53
30873;BME280;17579;42.690;2.586;2023-07-13T12:02:39;97430.94;;;31.05;33.98
30873;BME280;17579;42.690;2.586;2023-07-13T12:05:10;97431.47;;;31.28;32.93
30873;BME280;17579;42.690;2.586;2023-07-13T12:07:46;97429.53;;;31.44;32.71
30873;BME280;17579;42.690;2.586;2023-07-13T12:12:46;97416.31;;;31.82;32.57
30873;BME280;17579;42.690;2.586;2023-07-13T12:15:38;97422.28;;;32.00;32.14
30873;BME280;17579;42.690;2.586;2023-07-13T12:18:14;97423.84;;;32.21;32.06
30873;BME280;17579;42.690;2.586;2023-07-13T12:21:00;97419.28;;;32.51;31.20
30873;BME280;17579;42.690;2.586;2023-07-13T12:26:01;97411.06;;;32.96;30.77
30873;BME280;17579;42.690;2.586;2023-07-13T12:31:33;97402.31;;;33.53;30.69
30873;BME280;17579;42.690;2.586;2023-07-13T12:34:08;97409.47;;;33.73;29.56
30873;BME280;17579;42.690;2.586;2023-07-13T12:36:46;97400.44;;;33.72;29.45
30873;BME280;17579;42.690;2.586;2023-07-13T12:39:21;97407.19;;;33.85;29.29
30873;BME280;17579;42.690;2.586;2023-07-13T12:41:52;97402.63;;;33.99;29.35
30873;BME280;17579;42.690;2.586;2023-07-13T12:44:27;97408.63;;;34.21;29.30
30873;BME280;17579;42.690;2.586;2023-07-13T12:47:04;97414.84;;;34.31;28.74
30873;BME280;17579;42.690;2.586;2023-07-13T12:49:55;97404.19;;;34.25;29.03
30873;BME280;17579;42.690;2.586;2023-07-13T12:55:03;97397.88;;;34.24;28.56
30873;BME280;17579;42.690;2.586;2023-07-13T13:00:23;97398.25;;;34.17;28.83
30873;BME280;17579;42.690;2.586;2023-07-13T13:02:54;97400.19;;;34.17;28.55
30873;BME280;17579;42.690;2.586;2023-07-13T13:05:27;97401.88;;;34.13;29.06
30873;BME280;17579;42.690;2.586;2023-07-13T13:08:04;97388.66;;;33.96;28.67
30873;BME280;17579;42.690;2.586;2023-07-13T13:10:34;97392.97;;;33.54;29.03
30873;BME280;17579;42.690;2.586;2023-07-13T13:13:11;97391.16;;;33.44;29.36
30873;BME280;17579;42.690;2.586;2023-07-13T13:15:37;97399.09;;;33.45;29.63
30873;BME280;17579;42.690;2.586;2023-07-13T13:18:26;97388.72;;;33.66;29.61
30873;BME280;17579;42.690;2.586;2023-07-13T13:21:18;97391.81;;;33.84;29.19
30873;BME280;17579;42.690;2.586;2023-07-13T13:23:46;97389.19;;;33.74;29.18
30873;BME280;17579;42.690;2.586;2023-07-13T13:26:21;97396.31;;;33.75;29.09
30873;BME280;17579;42.690;2.586;2023-07-13T13:28:52;97398.00;;;33.71;29.27
30873;BME280;17579;42.690;2.586;2023-07-13T13:31:28;97398.94;;;33.61;29.42
30873;BME280;17579;42.690;2.586;2023-07-13T13:33:59;97403.44;;;33.76;28.93
30873;BME280;17579;42.690;2.586;2023-07-13T13:36:27;97408.50;;;33.63;29.24
30873;BME280;17579;42.690;2.586;2023-07-13T13:38:58;97408.84;;;33.57;29.62
30873;BME280;17579;42.690;2.586;2023-07-13T13:41:26;97410.41;;;33.63;29.19
30873;BME280;17579;42.690;2.586;2023-07-13T13:43:57;97409.41;;;33.29;29.58
30873;BME280;17579;42.690;2.586;2023-07-13T13:46:31;97407.94;;;33.08;29.96
30873;BME280;17579;42.690;2.586;2023-07-13T13:48:59;97410.97;;;33.06;30.16
30873;BME280;17579;42.690;2.586;2023-07-13T13:51:25;97421.03;;;32.81;30.59
30873;BME280;17579;42.690;2.586;2023-07-13T13:53:51;97420.63;;;32.54;30.70
30873;BME280;17579;42.690;2.586;2023-07-13T13:56:25;97410.38;;;32.30;31.06
30873;BME280;17579;42.690;2.586;2023-07-13T13:58:54;97408.75;;;32.24;30.88
30873;BME280;17579;42.690;2.586;2023-07-13T14:01:26;97413.16;;;32.25;31.43
30873;BME280;17579;42.690;2.586;2023-07-13T14:03:55;97407.09;;;32.28;31.17
30873;BME280;17579;42.690;2.586;2023-07-13T14:06:41;97408.97;;;32.38;31.50
30873;BME280;17579;42.690;2.586;2023-07-13T14:09:10;97416.16;;;32.28;31.22
30873;BME280;17579;42.690;2.586;2023-07-13T14:11:39;97400.59;;;32.19;31.37
30873;BME280;17579;42.690;2.586;2023-07-13T14:14:12;97412.06;;;32.21;31.51
30873;BME280;17579;42.690;2.586;2023-07-13T14:19:32;97407.16;;;32.23;31.10
30873;BME280;17579;42.690;2.586;2023-07-13T14:22:03;97402.63;;;31.92;31.36
30873;BME280;17579;42.690;2.586;2023-07-13T14:24:58;97406.53;;;31.55;31.63
30873;BME280;17579;42.690;2.586;2023-07-13T14:27:25;97400.81;;;31.41;32.43
30873;BME280;17579;42.690;2.586;2023-07-13T14:32:42;97390.16;;;31.35;32.39
30873;BME280;17579;42.690;2.586;2023-07-13T14:35:11;97397.59;;;31.08;32.98
30873;BME280;17579;42.690;2.586;2023-07-13T14:38:07;97401.16;;;31.04;33.10
30873;BME280;17579;42.690;2.586;2023-07-13T14:40:34;97399.50;;;30.98;32.82
30873;BME280;17579;42.690;2.586;2023-07-13T14:43:02;97404.13;;;30.87;33.37
30873;BME280;17579;42.690;2.586;2023-07-13T14:45:53;97400.31;;;30.78;33.31
30873;BME280;17579;42.690;2.586;2023-07-13T14:48:32;97395.38;;;30.54;33.91
30873;BME280;17579;42.690;2.586;2023-07-13T14:54:03;97394.84;;;30.52;33.94
30873;BME280;17579;42.690;2.586;2023-07-13T14:59:21;97402.97;;;30.36;34.22
30873;BME280;17579;42.690;2.586;2023-07-13T15:02:25;97408.31;;;30.05;34.49